AYPY/POM METAR and TAF weather

Enter ICAO airport designator
Station Type Date Time Source
AYPY METAR 2018/12/12 04:00 UTC NOAA

AYPY 120400Z 26015KT 9999 HZ SCT040 OVC060 34/24 Q1005 RMK


Station Type Date Time Source
AYPY Decoded METAR 2018/12/12 04:00 UTC NOAA

Moresby, Papua New Guinea (AYPY) 09-26S 147-13E 49M
Dec 11, 2018 - 11:00 PM EST / 2018.12.12 0400 UTC
Wind: from the W (260 degrees) at 17 MPH (15 KT):0
Visibility: greater than 7 mile(s):0
Sky conditions: overcast
Weather: haze
Temperature: 93 F (34 C)
Heat index: 104.5 F (40.3 C):1
Dew Point: 75 F (24 C)
Relative Humidity: 56%
Pressure (altimeter): 29.68 in. Hg (1005 hPa)
ob: AYPY 120400Z 26015KT 9999 HZ SCT040 OVC060 34/24 Q1005 RMK
cycle: 4

Station Type Date Time Source
AYPY TAF 2018/12/12 06:55 UTC NOAA

TAF AYPY 120232Z 1206/1306 30010KT 9999 -SHRA SCT018 BKN140


Example: see airport list